sensor_id;sensor_type;location;lat;lon;timestamp;pressure;altitude;pressure_sealevel;temperature;humidity
48964;BME280;34776;48.180;16.420;2023-08-24T07:13:55;100002.31;;;42.97;27.74
48964;BME280;34776;48.180;16.420;2023-08-24T07:44:54;99998.88;;;48.61;19.18
48964;BME280;34776;48.180;16.420;2023-08-24T07:52:30;99997.25;;;47.12;21.08
48964;BME280;34776;48.180;16.420;2023-08-24T08:39:42;99994.75;;;49.71;17.89
48964;BME280;34776;48.180;16.420;2023-08-24T08:44:45;99985.16;;;50.32;17.25
48964;BME280;34776;48.180;16.420;2023-08-24T09:25:58;99965.75;;;40.70;24.93
48964;BME280;34776;48.180;16.420;2023-08-24T09:28:24;99958.78;;;39.99;25.92
48964;BME280;34776;48.180;16.420;2023-08-24T09:41:03;99941.19;;;36.80;28.53
48964;BME280;34776;48.180;16.420;2023-08-24T10:01:35;99930.38;;;35.08;31.69
48964;BME280;34776;48.180;16.420;2023-08-24T10:04:05;99919.34;;;34.66;32.31
48964;BME280;34776;48.180;16.420;2023-08-24T10:06:32;99918.31;;;34.30;32.60
48964;BME280;34776;48.180;16.420;2023-08-24T10:11:41;99915.88;;;34.52;32.97
48964;BME280;34776;48.180;16.420;2023-08-24T10:19:32;99903.50;;;34.73;32.92
48964;BME280;34776;48.180;16.420;2023-08-24T10:22:00;99909.19;;;34.78;32.96
48964;BME280;34776;48.180;16.420;2023-08-24T10:24:27;99896.13;;;34.97;32.60
48964;BME280;34776;48.180;16.420;2023-08-24T10:26:55;99895.47;;;35.25;32.17
48964;BME280;34776;48.180;16.420;2023-08-24T10:29:22;99898.22;;;35.49;31.37
48964;BME280;34776;48.180;16.420;2023-08-24T10:31:50;99893.34;;;35.74;31.22
48964;BME280;34776;48.180;16.420;2023-08-24T10:34:17;99894.88;;;35.58;31.01
48964;BME280;34776;48.180;16.420;2023-08-24T10:36:43;99898.00;;;35.27;31.47
48964;BME280;34776;48.180;16.420;2023-08-24T10:41:49;99887.56;;;35.29;31.27
48964;BME280;34776;48.180;16.420;2023-08-24T10:44:24;99877.59;;;35.40;31.51
48964;BME280;34776;48.180;16.420;2023-08-24T10:49:34;99864.25;;;35.60;31.29
48964;BME280;34776;48.180;16.420;2023-08-24T10:54:46;99869.97;;;35.94;30.76
48964;BME280;34776;48.180;16.420;2023-08-24T10:57:39;99863.75;;;35.87;30.43
48964;BME280;34776;48.180;16.420;2023-08-24T11:00:07;99853.84;;;36.14;30.25
48964;BME280;34776;48.180;16.420;2023-08-24T11:05:23;99858.97;;;36.11;30.48
48964;BME280;34776;48.180;16.420;2023-08-24T11:08:03;99859.66;;;36.30;30.33
48964;BME280;34776;48.180;16.420;2023-08-24T11:13:16;99851.72;;;36.79;29.65
48964;BME280;34776;48.180;16.420;2023-08-24T11:15:44;99851.72;;;36.79;29.65
48964;BME280;34776;48.180;16.420;2023-08-24T11:20:41;99838.31;;;36.71;29.51
48964;BME280;34776;48.180;16.420;2023-08-24T11:23:07;99842.56;;;36.78;29.51
48964;BME280;34776;48.180;16.420;2023-08-24T11:25:35;99837.78;;;36.91;29.81
48964;BME280;34776;48.180;16.420;2023-08-24T11:28:03;99836.22;;;37.12;29.40
48964;BME280;34776;48.180;16.420;2023-08-24T11:30:31;99832.38;;;37.13;29.70
48964;BME280;34776;48.180;16.420;2023-08-24T11:32:57;99830.31;;;37.25;29.81
48964;BME280;34776;48.180;16.420;2023-08-24T11:35:23;99825.06;;;37.46;29.30
48964;BME280;34776;48.180;16.420;2023-08-24T11:37:52;99827.19;;;37.38;28.70
48964;BME280;34776;48.180;16.420;2023-08-24T11:40:18;99819.06;;;37.32;28.97
48964;BME280;34776;48.180;16.420;2023-08-24T11:42:44;99826.19;;;37.45;28.92
48964;BME280;34776;48.180;16.420;2023-08-24T11:45:15;99822.53;;;37.22;28.43
48964;BME280;34776;48.180;16.420;2023-08-24T11:47:41;99820.31;;;37.07;29.33
48964;BME280;34776;48.180;16.420;2023-08-24T11:50:08;99818.75;;;36.94;29.23
48964;BME280;34776;48.180;16.420;2023-08-24T11:52:39;99812.09;;;36.95;29.09
48964;BME280;34776;48.180;16.420;2023-08-24T11:55:04;99809.50;;;36.89;29.51
48964;BME280;34776;48.180;16.420;2023-08-24T12:00:07;99805.75;;;36.49;29.59
48964;BME280;34776;48.180;16.420;2023-08-24T12:02:35;99804.28;;;36.58;29.73
48964;BME280;34776;48.180;16.420;2023-08-24T12:05:05;99793.66;;;36.84;29.78
48964;BME280;34776;48.180;16.420;2023-08-24T12:07:31;99799.00;;;37.08;29.13
48964;BME280;34776;48.180;16.420;2023-08-24T12:10:00;99789.34;;;37.27;28.87
48964;BME280;34776;48.180;16.420;2023-08-24T12:12:27;99793.69;;;37.40;28.52
48964;BME280;34776;48.180;16.420;2023-08-24T12:14:55;99787.28;;;37.40;28.69
48964;BME280;34776;48.180;16.420;2023-08-24T12:17:21;99789.88;;;37.46;28.80
48964;BME280;34776;48.180;16.420;2023-08-24T12:20:15;99783.38;;;37.18;28.08
48964;BME280;34776;48.180;16.420;2023-08-24T12:22:44;99779.44;;;36.97;28.53
48964;BME280;34776;48.180;16.420;2023-08-24T12:25:10;99774.44;;;36.94;29.35
48964;BME280;34776;48.180;16.420;2023-08-24T12:27:36;99766.88;;;37.07;29.06
48964;BME280;34776;48.180;16.420;2023-08-24T12:30:02;99774.97;;;37.30;29.18
48964;BME280;34776;48.180;16.420;2023-08-24T12:32:41;99771.91;;;37.49;28.43
48964;BME280;34776;48.180;16.420;2023-08-24T12:35:07;99761.47;;;37.78;28.27
48964;BME280;34776;48.180;16.420;2023-08-24T12:37:35;99758.63;;;37.95;27.47
48964;BME280;34776;48.180;16.420;2023-08-24T12:40:02;99751.97;;;38.23;27.82
48964;BME280;34776;48.180;16.420;2023-08-24T12:42:30;99749.78;;;38.25;27.65
48964;BME280;34776;48.180;16.420;2023-08-24T12:44:57;99750.03;;;38.24;27.28
48964;BME280;34776;48.180;16.420;2023-08-24T12:47:25;99751.75;;;38.30;27.02
48964;BME280;34776;48.180;16.420;2023-08-24T12:49:51;99741.13;;;38.22;27.44
48964;BME280;34776;48.180;16.420;2023-08-24T12:52:17;99740.41;;;38.04;27.53
48964;BME280;34776;48.180;16.420;2023-08-24T12:54:43;99727.56;;;37.98;27.35
48964;BME280;34776;48.180;16.420;2023-08-24T12:57:08;99732.28;;;37.97;27.61
48964;BME280;34776;48.180;16.420;2023-08-24T12:59:34;99713.75;;;38.03;27.19
48964;BME280;34776;48.180;16.420;2023-08-24T13:01:59;99710.50;;;38.11;27.43
48964;BME280;34776;48.180;16.420;2023-08-24T13:04:24;99714.25;;;38.22;26.94
48964;BME280;34776;48.180;16.420;2023-08-24T13:06:53;99706.31;;;38.36;27.01
48964;BME280;34776;48.180;16.420;2023-08-24T13:09:18;99703.50;;;38.31;26.71
48964;BME280;34776;48.180;16.420;2023-08-24T13:11:44;99705.06;;;38.22;27.04
48964;BME280;34776;48.180;16.420;2023-08-24T13:14:10;99704.56;;;38.25;27.08
48964;BME280;34776;48.180;16.420;2023-08-24T13:16:37;99699.31;;;38.01;27.17
48964;BME280;34776;48.180;16.420;2023-08-24T13:19:02;99696.06;;;38.09;27.05
48964;BME280;34776;48.180;16.420;2023-08-24T13:21:27;99694.97;;;38.10;27.14
48964;BME280;34776;48.180;16.420;2023-08-24T13:23:53;99688.84;;;38.08;27.09
48964;BME280;34776;48.180;16.420;2023-08-24T13:26:19;99693.69;;;37.96;27.34
48964;BME280;34776;48.180;16.420;2023-08-24T13:28:46;99685.28;;;37.86;27.37
48964;BME280;34776;48.180;16.420;2023-08-24T13:31:13;99688.22;;;38.01;27.18
48964;BME280;34776;48.180;16.420;2023-08-24T13:33:40;99693.88;;;38.11;27.20
48964;BME280;34776;48.180;16.420;2023-08-24T13:36:07;99686.78;;;38.26;26.85
48964;BME280;34776;48.180;16.420;2023-08-24T13:38:32;99685.47;;;38.33;26.74
48964;BME280;34776;48.180;16.420;2023-08-24T13:40:58;99675.81;;;38.41;26.37
48964;BME280;34776;48.180;16.420;2023-08-24T13:43:23;99674.69;;;38.37;26.18
48964;BME280;34776;48.180;16.420;2023-08-24T13:45:49;99675.53;;;38.43;26.47
48964;BME280;34776;48.180;16.420;2023-08-24T13:48:14;99673.63;;;38.43;26.46
48964;BME280;34776;48.180;16.420;2023-08-24T13:50:52;99669.97;;;38.37;26.22
48964;BME280;34776;48.180;16.420;2023-08-24T13:53:17;99675.44;;;38.00;26.38
48964;BME280;34776;48.180;16.420;2023-08-24T13:55:43;99670.41;;;37.97;26.83
48964;BME280;34776;48.180;16.420;2023-08-24T13:58:09;99667.81;;;38.12;26.86
48964;BME280;34776;48.180;16.420;2023-08-24T14:00:38;99661.47;;;38.17;26.56
48964;BME280;34776;48.180;16.420;2023-08-24T14:03:03;99667.59;;;38.19;26.49
48964;BME280;34776;48.180;16.420;2023-08-24T14:05:29;99659.09;;;38.31;26.66
48964;BME280;34776;48.180;16.420;2023-08-24T14:07:54;99663.56;;;38.37;26.39
48964;BME280;34776;48.180;16.420;2023-08-24T14:10:20;99650.19;;;38.29;26.61
48964;BME280;34776;48.180;16.420;2023-08-24T14:12:46;99650.94;;;38.19;26.64
48964;BME280;34776;48.180;16.420;2023-08-24T14:15:11;99651.50;;;38.21;27.25
48964;BME280;34776;48.180;16.420;2023-08-24T14:17:37;99656.56;;;38.29;26.67
48964;BME280;34776;48.180;16.420;2023-08-24T14:20:02;99643.50;;;38.25;26.77
48964;BME280;34776;48.180;16.420;2023-08-24T14:22:29;99637.84;;;38.14;26.96
48964;BME280;34776;48.180;16.420;2023-08-24T14:24:54;99629.78;;;38.13;26.47
48964;BME280;34776;48.180;16.420;2023-08-24T14:27:20;99632.72;;;38.01;26.71
48964;BME280;34776;48.180;16.420;2023-08-24T14:29:45;99630.72;;;37.96;26.76
48964;BME280;34776;48.180;16.420;2023-08-24T14:32:11;99627.59;;;37.88;27.15
48964;BME280;34776;48.180;16.420;2023-08-24T14:34:36;99631.63;;;37.70;27.16
48964;BME280;34776;48.180;16.420;2023-08-24T14:37:02;99615.13;;;37.58;27.34
48964;BME280;34776;48.180;16.420;2023-08-24T14:39:28;99620.72;;;37.63;27.18
48964;BME280;34776;48.180;16.420;2023-08-24T14:41:54;99618.41;;;37.55;27.62
48964;BME280;34776;48.180;16.420;2023-08-24T14:44:20;99606.75;;;37.53;27.47
48964;BME280;34776;48.180;16.420;2023-08-24T14:46:45;99602.91;;;37.32;27.84
48964;BME280;34776;48.180;16.420;2023-08-24T14:49:12;99599.81;;;36.84;27.93
48964;BME280;34776;48.180;16.420;2023-08-24T14:51:43;99608.31;;;36.61;28.37
48964;BME280;34776;48.180;16.420;2023-08-24T14:54:10;99608.00;;;36.57;28.65
48964;BME280;34776;48.180;16.420;2023-08-24T14:56:38;99608.81;;;36.57;28.72
48964;BME280;34776;48.180;16.420;2023-08-24T14:59:04;99605.66;;;36.66;28.67
48964;BME280;34776;48.180;16.420;2023-08-24T15:01:31;99595.22;;;36.56;28.76
48964;BME280;34776;48.180;16.420;2023-08-24T15:03:56;99597.22;;;36.22;29.15
48964;BME280;34776;48.180;16.420;2023-08-24T15:06:22;99590.28;;;36.19;29.67
48964;BME280;34776;48.180;16.420;2023-08-24T15:08:48;99592.84;;;36.26;29.46
48964;BME280;34776;48.180;16.420;2023-08-24T15:11:14;99589.44;;;36.19;29.27
48964;BME280;34776;48.180;16.420;2023-08-24T15:13:41;99590.72;;;35.99;30.26
48964;BME280;34776;48.180;16.420;2023-08-24T15:16:06;99581.81;;;35.63;30.61
48964;BME280;34776;48.180;16.420;2023-08-24T15:18:32;99588.16;;;35.18;31.11
48964;BME280;34776;48.180;16.420;2023-08-24T15:20:57;99580.41;;;34.91;31.59
48964;BME280;34776;48.180;16.420;2023-08-24T15:23:28;99580.09;;;34.76;31.39
48964;BME280;34776;48.180;16.420;2023-08-24T15:25:57;99577.56;;;34.74;32.02
48964;BME280;34776;48.180;16.420;2023-08-24T15:28:24;99584.13;;;34.85;31.42
48964;BME280;34776;48.180;16.420;2023-08-24T15:30:50;99581.38;;;34.85;31.77
48964;BME280;34776;48.180;16.420;2023-08-24T15:33:16;99573.53;;;34.94;31.83
48964;BME280;34776;48.180;16.420;2023-08-24T15:35:42;99582.16;;;35.09;31.69
48964;BME280;34776;48.180;16.420;2023-08-24T15:38:08;99584.28;;;35.19;31.63
48964;BME280;34776;48.180;16.420;2023-08-24T15:40:34;99573.75;;;35.16;31.77
48964;BME280;34776;48.180;16.420;2023-08-24T15:43:00;99582.41;;;35.08;31.82
48964;BME280;34776;48.180;16.420;2023-08-24T15:45:27;99587.13;;;34.95;32.11
48964;BME280;34776;48.180;16.420;2023-08-24T15:47:55;99587.72;;;34.86;32.15
48964;BME280;34776;48.180;16.420;2023-08-24T15:50:21;99576.50;;;34.75;32.64
48964;BME280;34776;48.180;16.420;2023-08-24T17:01:43;99536.88;;;32.04;38.89
48964;BME280;34776;48.180;16.420;2023-08-24T17:06:54;99534.50;;;31.83;38.81
48964;BME280;34776;48.180;16.420;2023-08-24T17:09:31;99534.16;;;31.72;38.71
48964;BME280;34776;48.180;16.420;2023-08-24T17:12:02;99542.06;;;31.62;39.30
48964;BME280;34776;48.180;16.420;2023-08-24T17:50:11;99555.28;;;30.43;42.34
48964;BME280;34776;48.180;16.420;2023-08-24T19:56:09;99533.41;;;28.19;47.70
48964;BME280;34776;48.180;16.420;2023-08-24T19:58:36;99535.91;;;28.13;47.87
48964;BME280;34776;48.180;16.420;2023-08-24T20:16:48;99495.63;;;27.94;48.29
48964;BME280;34776;48.180;16.420;2023-08-24T20:19:14;99492.25;;;27.92;48.07
48964;BME280;34776;48.180;16.420;2023-08-24T20:21:40;99486.34;;;27.88;48.24
48964;BME280;34776;48.180;16.420;2023-08-24T20:24:06;99485.03;;;27.84;48.20
48964;BME280;34776;48.180;16.420;2023-08-24T20:26:33;99469.88;;;27.82;48.28
48964;BME280;34776;48.180;16.420;2023-08-24T20:29:01;99473.03;;;27.79;48.27
48964;BME280;34776;48.180;16.420;2023-08-24T20:31:27;99471.31;;;27.78;48.52
48964;BME280;34776;48.180;16.420;2023-08-24T20:33:53;99470.69;;;27.76;48.64
48964;BME280;34776;48.180;16.420;2023-08-24T20:36:19;99468.16;;;27.74;48.85
48964;BME280;34776;48.180;16.420;2023-08-24T20:38:44;99471.09;;;27.72;48.56
48964;BME280;34776;48.180;16.420;2023-08-24T20:41:10;99463.94;;;27.71;48.98
48964;BME280;34776;48.180;16.420;2023-08-24T20:43:35;99468.56;;;27.71;48.69
48964;BME280;34776;48.180;16.420;2023-08-24T20:46:00;99467.06;;;27.68;49.00
48964;BME280;34776;48.180;16.420;2023-08-24T20:48:26;99471.03;;;27.66;48.96
48964;BME280;34776;48.180;16.420;2023-08-24T20:50:56;99465.97;;;27.63;49.04
48964;BME280;34776;48.180;16.420;2023-08-24T20:53:24;99463.44;;;27.61;48.94
48964;BME280;34776;48.180;16.420;2023-08-24T20:55:50;99454.59;;;27.59;49.19
48964;BME280;34776;48.180;16.420;2023-08-24T20:58:16;99456.47;;;27.59;49.23
48964;BME280;34776;48.180;16.420;2023-08-24T21:00:42;99445.16;;;27.55;49.36
48964;BME280;34776;48.180;16.420;2023-08-24T21:03:07;99444.50;;;27.53;49.38
48964;BME280;34776;48.180;16.420;2023-08-24T21:05:33;99435.66;;;27.51;49.21
48964;BME280;34776;48.180;16.420;2023-08-24T21:07:58;99436.03;;;27.48;49.32
48964;BME280;34776;48.180;16.420;2023-08-24T21:10:23;99427.22;;;27.46;49.37
48964;BME280;34776;48.180;16.420;2023-08-24T21:12:49;99431.19;;;27.43;49.64
48964;BME280;34776;48.180;16.420;2023-08-24T21:15:15;99441.44;;;27.41;49.57
48964;BME280;34776;48.180;16.420;2023-08-24T21:17:40;99448.16;;;27.39;49.86
48964;BME280;34776;48.180;16.420;2023-08-24T21:20:06;99441.41;;;27.35;49.92
48964;BME280;34776;48.180;16.420;2023-08-24T21:22:32;99448.94;;;27.32;50.10
48964;BME280;34776;48.180;16.420;2023-08-24T21:24:58;99448.28;;;27.30;50.12
48964;BME280;34776;48.180;16.420;2023-08-24T21:27:26;99444.25;;;27.26;50.40
48964;BME280;34776;48.180;16.420;2023-08-24T21:29:54;99438.34;;;27.23;50.33
48964;BME280;34776;48.180;16.420;2023-08-24T21:32:19;99445.00;;;27.20;50.67
48964;BME280;34776;48.180;16.420;2023-08-24T21:34:46;99432.81;;;27.16;50.88
48964;BME280;34776;48.180;16.420;2023-08-24T21:37:12;99429.44;;;27.14;50.89
48964;BME280;34776;48.180;16.420;2023-08-24T21:39:38;99431.91;;;27.09;51.03
48964;BME280;34776;48.180;16.420;2023-08-24T21:42:06;99428.53;;;27.07;50.98
48964;BME280;34776;48.180;16.420;2023-08-24T21:44:31;99432.28;;;27.06;50.99
48964;BME280;34776;48.180;16.420;2023-08-24T21:46:57;99428.91;;;27.04;51.20
48964;BME280;34776;48.180;16.420;2023-08-24T21:49:23;99427.22;;;27.03;51.49
48964;BME280;34776;48.180;16.420;2023-08-24T21:56:53;99433.47;;;26.97;51.84
48964;BME280;34776;48.180;16.420;2023-08-24T21:59:18;99432.16;;;26.92;52.04
48964;BME280;34776;48.180;16.420;2023-08-24T22:01:44;99438.00;;;26.89;52.01
48964;BME280;34776;48.180;16.420;2023-08-24T22:04:09;99444.88;;;26.85;52.40
48964;BME280;34776;48.180;16.420;2023-08-24T22:06:36;99454.47;;;26.81;52.69
48964;BME280;34776;48.180;16.420;2023-08-24T22:09:02;99470.16;;;26.79;52.50
48964;BME280;34776;48.180;16.420;2023-08-24T22:11:28;99471.22;;;26.78;52.79
48964;BME280;34776;48.180;16.420;2023-08-24T22:13:53;99489.47;;;26.78;52.88
48964;BME280;34776;48.180;16.420;2023-08-24T22:16:19;99478.75;;;26.76;52.88
48964;BME280;34776;48.180;16.420;2023-08-24T22:18:44;99468.88;;;26.75;52.96
48964;BME280;34776;48.180;16.420;2023-08-24T22:21:09;99469.25;;;26.72;53.23
48964;BME280;34776;48.180;16.420;2023-08-24T22:23:36;99466.91;;;26.69;53.24
48964;BME280;34776;48.180;16.420;2023-08-24T22:26:01;99466.28;;;26.67;53.35
48964;BME280;34776;48.180;16.420;2023-08-24T22:28:27;99455.75;;;26.64;53.42
48964;BME280;34776;48.180;16.420;2023-08-24T22:30:53;99437.44;;;26.58;53.83
48964;BME280;34776;48.180;16.420;2023-08-24T22:33:21;99425.19;;;26.53;53.84
48964;BME280;34776;48.180;16.420;2023-08-24T22:35:46;99422.88;;;26.50;54.15
48964;BME280;34776;48.180;16.420;2023-08-24T22:38:13;99407.72;;;26.48;54.40
48964;BME280;34776;48.180;16.420;2023-08-24T22:40:38;99407.72;;;26.48;54.19
48964;BME280;34776;48.180;16.420;2023-08-24T22:43:04;99420.50;;;26.47;54.59
48964;BME280;34776;48.180;16.420;2023-08-24T22:45:39;99434.88;;;26.41;55.36
48964;BME280;34776;48.180;16.420;2023-08-24T22:48:06;99449.94;;;26.37;54.99
48964;BME280;34776;48.180;16.420;2023-08-24T22:50:33;99444.88;;;26.34;54.98
48964;BME280;34776;48.180;16.420;2023-08-24T22:52:59;99456.59;;;26.35;55.12
48964;BME280;34776;48.180;16.420;2023-08-24T22:55:24;99445.06;;;26.32;55.14
48964;BME280;34776;48.180;16.420;2023-08-24T22:57:50;99461.59;;;26.31;55.39
48964;BME280;34776;48.180;16.420;2023-08-24T23:00:15;99466.19;;;26.30;55.50
48964;BME280;34776;48.180;16.420;2023-08-24T23:02:42;99454.47;;;26.30;55.66
48964;BME280;34776;48.180;16.420;2023-08-24T23:07:44;99451.56;;;26.31;55.39
48964;BME280;34776;48.180;16.420;2023-08-24T23:15:25;99446.47;;;26.28;55.79
48964;BME280;34776;48.180;16.420;2023-08-24T23:20:28;99436.81;;;26.26;56.38
48964;BME280;34776;48.180;16.420;2023-08-24T23:22:53;99424.22;;;26.25;56.24
48964;BME280;34776;48.180;16.420;2023-08-24T23:27:59;99421.03;;;26.21;56.46
48964;BME280;34776;48.180;16.420;2023-08-24T23:30:26;99416.59;;;26.20;56.52
48964;BME280;34776;48.180;16.420;2023-08-24T23:32:51;99418.50;;;26.20;56.67
48964;BME280;34776;48.180;16.420;2023-08-24T23:35:17;99416.81;;;26.19;56.75
48964;BME280;34776;48.180;16.420;2023-08-24T23:37:43;99423.28;;;26.18;56.95
48964;BME280;34776;48.180;16.420;2023-08-24T23:40:10;99422.63;;;26.16;56.88
48964;BME280;34776;48.180;16.420;2023-08-24T23:45:11;99414.84;;;26.12;57.32
48964;BME280;34776;48.180;16.420;2023-08-24T23:47:38;99408.75;;;26.10;57.39
48964;BME280;34776;48.180;16.420;2023-08-24T23:50:05;99405.38;;;26.08;57.68
48964;BME280;34776;48.180;16.420;2023-08-24T23:55:54;99417.28;;;26.07;58.48
